Terminal Aerodrome Forecast
Issued by NWS

Home | Current Version | Previous Version | Text Only | Print | Product List | Glossary On
Versions: 1 2 3 4 5 6 7 8 9 10 11 12 13 14 15 16 17 18 19 20 21 22 23 24 25 26
530
FTUS43 KDLH 162341
TAFHYR
TAF
KHYR 162341Z 1700/1724 24004KT P6SM SCT100
     FM170200 23004KT P6SM BKN100
     FM170900 21006KT P6SM SCT100 BKN200 WS020/26040KT
     FM171700 21011G17KT P6SM SCT200=

USA.gov is the U.S. government's official web portal to all federal, state and local government web resources and services.